createdAt,value
2018-06-30T00:00:44.768Z,15.90
2018-06-30T00:03:12.893Z,14.50
2018-06-30T00:05:41.003Z,14.50
2018-06-30T00:08:09.150Z,17.40
2018-06-30T00:10:37.271Z,14.43
2018-06-30T00:13:05.399Z,14.90
2018-06-30T00:15:33.516Z,14.53
2018-06-30T00:18:01.628Z,15.93
2018-06-30T00:20:29.734Z,14.60
2018-06-30T00:22:57.857Z,14.70
2018-06-30T00:25:26.039Z,15.57
2018-06-30T00:27:56.090Z,14.97
2018-06-30T00:30:24.911Z,16.90
2018-06-30T00:32:53.095Z,14.00
2018-06-30T00:35:21.199Z,14.90
2018-06-30T00:37:49.312Z,15.73
2018-06-30T00:40:17.465Z,15.03
2018-06-30T00:42:45.742Z,15.37
2018-06-30T00:45:13.855Z,15.40
2018-06-30T00:47:41.996Z,16.60
2018-06-30T00:50:10.119Z,16.00
2018-06-30T00:52:38.261Z,14.93
2018-06-30T00:55:06.400Z,15.13
2018-06-30T00:57:34.519Z,15.90
2018-06-30T01:00:02.739Z,16.10
2018-06-30T01:02:30.858Z,15.67
2018-06-30T01:04:58.734Z,16.03
2018-06-30T01:07:26.863Z,18.23
2018-06-30T01:09:55.142Z,17.60
2018-06-30T01:12:23.258Z,15.40
2018-06-30T01:14:51.364Z,16.73
2018-06-30T01:17:19.487Z,15.80
2018-06-30T01:19:47.631Z,15.70
2018-06-30T01:22:15.773Z,16.63
2018-06-30T01:24:43.883Z,16.60
2018-06-30T01:27:12.000Z,16.40
2018-06-30T01:29:40.111Z,15.47
2018-06-30T01:32:08.215Z,15.80
2018-06-30T01:34:36.106Z,16.43
2018-06-30T01:37:04.278Z,16.03
2018-06-30T01:39:32.397Z,17.00
2018-06-30T01:42:00.598Z,16.93
2018-06-30T01:44:28.702Z,15.70
2018-06-30T01:46:56.942Z,16.13
2018-06-30T01:49:25.065Z,16.87
2018-06-30T01:51:53.171Z,15.87
2018-06-30T01:54:21.284Z,17.23
2018-06-30T01:56:49.382Z,17.27
2018-06-30T01:59:17.494Z,16.70
2018-06-30T02:01:45.594Z,17.63
2018-06-30T02:04:13.474Z,18.07
2018-06-30T02:06:41.574Z,18.50
2018-06-30T02:09:10.906Z,16.53
2018-06-30T02:11:39.481Z,16.03
2018-06-30T02:14:07.974Z,16.17
2018-06-30T02:16:36.087Z,16.60
2018-06-30T02:19:04.303Z,16.07
2018-06-30T02:21:32.433Z,14.00
2018-06-30T02:24:00.502Z,13.97
2018-06-30T02:26:28.599Z,14.80
2018-06-30T02:28:56.706Z,15.47
2018-06-30T02:31:24.856Z,15.57
2018-06-30T02:33:52.964Z,16.13
2018-06-30T02:36:21.059Z,17.00
2018-06-30T02:38:49.158Z,16.53
2018-06-30T02:41:17.256Z,18.37
2018-06-30T02:43:45.359Z,17.53
2018-06-30T02:46:13.457Z,16.83
2018-06-30T02:48:41.563Z,16.10
2018-06-30T02:51:10.479Z,17.13
2018-06-30T02:53:38.583Z,17.27
2018-06-30T02:56:06.679Z,17.93
2018-06-30T02:58:34.774Z,17.40
2018-06-30T03:01:02.915Z,16.43
2018-06-30T03:03:31.168Z,18.03
2018-06-30T03:05:59.278Z,17.90
2018-06-30T03:08:27.389Z,18.20
2018-06-30T03:10:55.953Z,17.80
2018-06-30T03:13:24.067Z,17.80
2018-06-30T03:15:52.162Z,16.30
2018-06-30T03:18:20.270Z,15.00
2018-06-30T03:20:48.375Z,12.77
2018-06-30T03:23:16.493Z,11.43
2018-06-30T03:25:44.638Z,12.03
2018-06-30T03:28:12.736Z,12.53
2018-06-30T03:30:40.912Z,12.90
2018-06-30T03:33:08.999Z,13.97
2018-06-30T03:35:37.103Z,14.90
2018-06-30T03:38:05.377Z,14.93
2018-06-30T03:40:33.514Z,15.20
2018-06-30T03:43:01.614Z,16.20
2018-06-30T03:45:29.729Z,16.67
2018-06-30T03:47:57.920Z,17.07
2018-06-30T03:50:26.023Z,16.33
2018-06-30T03:52:54.201Z,17.10
2018-06-30T03:55:22.397Z,15.73
2018-06-30T03:57:50.570Z,17.00
2018-06-30T04:00:18.685Z,16.73
2018-06-30T04:05:30.486Z,15.93
2018-06-30T04:07:58.775Z,15.30
2018-06-30T04:10:26.878Z,15.20
2018-06-30T04:12:54.978Z,17.40
2018-06-30T04:15:23.096Z,16.20
2018-06-30T04:17:51.379Z,16.53
2018-06-30T04:20:19.483Z,17.20
2018-06-30T04:22:47.771Z,17.53
2018-06-30T04:25:15.886Z,15.87
2018-06-30T04:27:44.101Z,16.20
2018-06-30T04:30:12.194Z,15.63
2018-06-30T04:32:40.294Z,16.30
2018-06-30T04:35:08.398Z,16.87
2018-06-30T04:37:36.494Z,16.83
2018-06-30T04:40:04.808Z,16.20
2018-06-30T04:42:32.922Z,16.30
2018-06-30T04:45:01.035Z,17.47
2018-06-30T04:47:29.652Z,15.47
2018-06-30T04:49:57.986Z,17.67
2018-06-30T04:52:26.135Z,17.13
2018-06-30T04:54:54.255Z,18.07
2018-06-30T04:57:22.351Z,16.77
2018-06-30T04:59:50.458Z,16.03
2018-06-30T05:02:18.613Z,17.20
2018-06-30T05:04:46.710Z,15.60
2018-06-30T05:07:14.952Z,15.70
2018-06-30T05:09:43.062Z,15.57
2018-06-30T05:12:11.158Z,15.93
2018-06-30T05:14:40.194Z,15.53
2018-06-30T05:17:08.291Z,14.90
2018-06-30T05:19:36.394Z,15.67
2018-06-30T05:22:04.498Z,17.10
2018-06-30T05:24:32.798Z,16.43
2018-06-30T05:27:00.897Z,17.90
2018-06-30T05:29:29.052Z,17.00
2018-06-30T05:31:57.168Z,18.03
2018-06-30T05:34:25.286Z,18.30
2018-06-30T05:36:53.394Z,16.33
2018-06-30T05:39:21.498Z,16.07
2018-06-30T05:41:49.598Z,17.80
2018-06-30T05:44:17.698Z,15.03
2018-06-30T05:46:45.873Z,16.40
2018-06-30T05:49:13.972Z,15.90
2018-06-30T05:51:42.079Z,15.60
2018-06-30T05:54:10.698Z,15.53
2018-06-30T05:56:45.342Z,14.23
2018-06-30T05:59:13.506Z,15.17
2018-06-30T06:01:41.558Z,15.17
2018-06-30T06:04:09.666Z,14.87
2018-06-30T06:06:37.819Z,15.30
2018-06-30T06:09:07.702Z,13.47
2018-06-30T06:11:35.927Z,13.73
2018-06-30T06:14:04.210Z,14.37
2018-06-30T06:16:32.387Z,13.87
2018-06-30T06:19:00.531Z,13.33
2018-06-30T06:21:28.636Z,13.63
2018-06-30T06:23:56.738Z,13.97
2018-06-30T06:26:24.843Z,13.13
2018-06-30T06:28:53.275Z,12.77
2018-06-30T06:31:21.158Z,14.13
2018-06-30T06:33:49.368Z,13.83
2018-06-30T06:36:17.475Z,12.83
2018-06-30T06:38:45.575Z,12.77
2018-06-30T06:41:13.685Z,13.40
2018-06-30T06:43:41.783Z,13.57
2018-06-30T06:46:09.890Z,13.40
2018-06-30T06:48:37.991Z,14.30
2018-06-30T06:51:06.202Z,13.40
2018-06-30T06:53:34.339Z,13.80
2018-06-30T06:56:02.446Z,13.07
2018-06-30T06:58:30.550Z,12.97
2018-06-30T07:00:58.670Z,12.50
2018-06-30T07:03:26.766Z,11.60
2018-06-30T07:05:54.906Z,12.00
2018-06-30T07:08:22.982Z,12.57
2018-06-30T07:10:51.150Z,11.90
2018-06-30T07:13:19.247Z,11.07
2018-06-30T07:15:47.399Z,11.00
2018-06-30T07:18:15.499Z,11.30
2018-06-30T07:20:43.602Z,11.07
2018-06-30T07:23:11.711Z,11.73
2018-06-30T07:25:39.852Z,11.90
2018-06-30T07:28:08.102Z,10.03
2018-06-30T07:30:36.349Z,12.33
2018-06-30T07:33:04.303Z,16.77
2018-06-30T07:35:32.401Z,12.17
2018-06-30T07:38:00.503Z,14.00
2018-06-30T07:40:28.603Z,11.20
2018-06-30T07:42:56.707Z,14.00
2018-06-30T07:45:24.826Z,12.50
2018-06-30T07:47:52.934Z,11.50
2018-06-30T07:50:21.062Z,14.17
2018-06-30T07:52:49.146Z,47.43
2018-06-30T07:55:17.635Z,30.60
2018-06-30T07:57:45.755Z,14.70
2018-06-30T08:00:14.114Z,22.13
2018-06-30T08:02:42.299Z,16.00
2018-06-30T08:05:10.403Z,13.50
2018-06-30T08:07:38.539Z,15.83
2018-06-30T08:10:06.647Z,13.67
2018-06-30T08:12:35.026Z,12.87
2018-06-30T08:15:03.123Z,9.60
2018-06-30T08:17:31.234Z,12.90
2018-06-30T08:19:59.342Z,11.83
2018-06-30T08:22:27.702Z,12.03
2018-06-30T08:24:55.859Z,12.37
2018-06-30T08:27:23.990Z,11.47
2018-06-30T08:29:52.111Z,11.60
2018-06-30T08:32:20.299Z,14.43
2018-06-30T08:34:48.427Z,13.33
2018-06-30T08:37:16.544Z,12.50
2018-06-30T08:39:44.634Z,13.43
2018-06-30T08:42:12.811Z,12.30
2018-06-30T08:44:40.738Z,14.20
2018-06-30T08:47:08.862Z,11.87
2018-06-30T08:49:36.982Z,12.07
2018-06-30T08:52:05.172Z,12.10
2018-06-30T08:54:34.535Z,11.17
2018-06-30T08:57:02.792Z,11.60
2018-06-30T08:59:30.910Z,10.73
2018-06-30T09:01:59.092Z,12.50
2018-06-30T09:04:27.262Z,10.23
2018-06-30T09:06:55.370Z,13.07
2018-06-30T09:09:25.234Z,12.00
2018-06-30T09:11:53.328Z,12.27
2018-06-30T09:14:21.419Z,11.77
2018-06-30T09:16:49.554Z,10.47
2018-06-30T09:19:17.734Z,10.37
2018-06-30T09:21:45.838Z,10.60
2018-06-30T09:24:13.968Z,11.00
2018-06-30T09:26:44.527Z,11.50
2018-06-30T09:29:12.629Z,9.97
2018-06-30T09:31:40.744Z,9.47
2018-06-30T09:34:10.508Z,9.83
2018-06-30T09:36:39.874Z,9.50
2018-06-30T09:39:10.315Z,9.07
2018-06-30T09:41:38.483Z,9.90
2018-06-30T09:44:07.069Z,8.60
2018-06-30T09:46:35.234Z,9.43
2018-06-30T09:49:03.362Z,9.43
2018-06-30T09:51:31.483Z,9.63
2018-06-30T09:53:59.591Z,8.37
2018-06-30T09:56:27.698Z,8.70
2018-06-30T09:58:55.804Z,9.47
2018-06-30T10:01:23.891Z,9.27
2018-06-30T10:03:52.004Z,9.57
2018-06-30T10:06:20.090Z,8.47
2018-06-30T10:08:48.210Z,8.20
2018-06-30T10:11:16.318Z,8.10
2018-06-30T10:13:44.423Z,7.80
2018-06-30T10:16:12.511Z,7.97
2018-06-30T10:18:40.620Z,7.20
2018-06-30T10:21:08.755Z,6.90
2018-06-30T10:23:36.846Z,6.27
2018-06-30T10:26:04.934Z,6.70
2018-06-30T10:28:33.058Z,5.97
2018-06-30T10:31:01.206Z,6.70
2018-06-30T10:33:29.388Z,6.47
2018-06-30T10:35:57.472Z,6.53
2018-06-30T10:38:25.573Z,6.10
2018-06-30T10:40:53.890Z,6.50
2018-06-30T10:43:22.010Z,7.10
2018-06-30T10:45:50.103Z,5.87
2018-06-30T10:48:18.274Z,6.27
2018-06-30T10:50:46.428Z,6.03
2018-06-30T10:53:15.145Z,5.43
2018-06-30T10:55:43.335Z,6.17
2018-06-30T10:58:11.454Z,5.00
2018-06-30T11:00:39.543Z,5.10
2018-06-30T11:03:07.667Z,5.87
2018-06-30T11:05:35.756Z,5.57
2018-06-30T11:08:03.866Z,6.57
2018-06-30T11:10:32.008Z,5.13
2018-06-30T11:13:00.104Z,5.97
2018-06-30T11:15:28.223Z,5.00
2018-06-30T11:17:56.349Z,5.53
2018-06-30T11:20:24.773Z,5.03
2018-06-30T11:22:54.102Z,5.30
2018-06-30T11:25:22.315Z,4.40
2018-06-30T11:27:54.109Z,4.90
2018-06-30T11:30:22.472Z,5.33
2018-06-30T11:32:50.597Z,4.90
2018-06-30T11:35:18.687Z,6.37
2018-06-30T11:37:46.893Z,5.33
2018-06-30T11:40:14.979Z,5.03
2018-06-30T11:42:43.087Z,5.10
2018-06-30T11:45:11.178Z,4.90
2018-06-30T11:47:39.294Z,6.77
2018-06-30T11:50:07.530Z,9.00
2018-06-30T11:52:35.674Z,5.10
2018-06-30T11:55:03.786Z,5.37
2018-06-30T11:57:31.883Z,5.60
2018-06-30T11:59:59.990Z,4.93
2018-06-30T12:02:28.078Z,5.20
2018-06-30T12:04:56.187Z,8.37
2018-06-30T12:07:24.270Z,4.80
2018-06-30T12:09:52.146Z,5.37
2018-06-30T12:12:20.246Z,5.70
2018-06-30T12:14:48.351Z,6.10
2018-06-30T12:17:16.455Z,6.17
2018-06-30T12:19:44.566Z,5.23
2018-06-30T12:22:12.666Z,5.93
2018-06-30T12:24:40.770Z,5.73
2018-06-30T12:27:08.877Z,5.77
2018-06-30T12:29:36.987Z,4.90
2018-06-30T12:32:05.134Z,5.57
2018-06-30T12:34:33.190Z,5.90
2018-06-30T12:37:01.284Z,5.63
2018-06-30T12:39:29.386Z,5.60
2018-06-30T12:41:57.490Z,4.80
2018-06-30T12:44:25.594Z,8.10
2018-06-30T12:46:53.714Z,5.77
2018-06-30T12:49:21.823Z,5.67
2018-06-30T12:51:49.914Z,5.70
2018-06-30T12:54:18.102Z,5.33
2018-06-30T12:56:46.106Z,4.70
2018-06-30T12:59:14.211Z,5.53
2018-06-30T13:01:42.304Z,4.50
2018-06-30T13:04:10.407Z,5.77
2018-06-30T13:06:38.490Z,4.90
2018-06-30T13:09:08.651Z,5.60
2018-06-30T13:11:36.859Z,5.37
2018-06-30T13:14:05.964Z,4.77
2018-06-30T13:16:34.369Z,4.77
2018-06-30T13:19:02.494Z,4.57
2018-06-30T13:21:30.662Z,5.20
2018-06-30T13:23:58.844Z,4.53
2018-06-30T13:26:27.036Z,4.70
2018-06-30T13:28:55.234Z,4.70
2018-06-30T13:31:23.403Z,5.20
2018-06-30T13:33:51.482Z,5.83
2018-06-30T13:36:19.610Z,5.20
2018-06-30T13:38:48.776Z,4.50
2018-06-30T13:41:17.202Z,4.80
2018-06-30T13:43:45.437Z,4.87
2018-06-30T13:46:13.482Z,4.47
2018-06-30T13:48:41.563Z,7.33
2018-06-30T13:51:09.664Z,5.40
2018-06-30T13:53:37.861Z,5.00
2018-06-30T13:56:06.383Z,4.60
2018-06-30T13:58:34.486Z,4.57
2018-06-30T14:01:02.583Z,6.97
2018-06-30T14:03:30.674Z,4.90
2018-06-30T14:05:58.907Z,5.50
2018-06-30T14:08:26.978Z,4.37
2018-06-30T14:10:55.174Z,4.90
2018-06-30T14:13:23.270Z,4.50
2018-06-30T14:15:51.420Z,5.43
2018-06-30T14:18:23.350Z,5.40
2018-06-30T14:20:51.471Z,4.60
2018-06-30T14:23:19.639Z,4.53
2018-06-30T14:25:47.826Z,5.00
2018-06-30T14:28:15.959Z,4.43
2018-06-30T14:30:44.146Z,4.87
2018-06-30T14:33:12.314Z,4.10
2018-06-30T14:35:40.503Z,4.67
2018-06-30T14:38:08.666Z,4.80
2018-06-30T14:40:36.763Z,6.33
2018-06-30T14:43:04.868Z,4.63
2018-06-30T14:45:32.974Z,4.90
2018-06-30T14:48:01.158Z,4.83
2018-06-30T14:50:29.363Z,4.70
2018-06-30T14:52:57.454Z,5.10
2018-06-30T14:55:25.561Z,4.83
2018-06-30T14:57:53.663Z,5.60
2018-06-30T15:00:21.888Z,8.47
2018-06-30T15:02:50.255Z,6.20
2018-06-30T15:05:18.396Z,4.73
2018-06-30T15:07:46.498Z,12.10
2018-06-30T15:10:14.612Z,7.20
2018-06-30T15:12:42.714Z,5.13
2018-06-30T15:15:10.819Z,4.57
2018-06-30T15:17:38.939Z,6.90
2018-06-30T15:20:07.248Z,5.93
2018-06-30T15:22:35.366Z,5.17
2018-06-30T15:25:03.475Z,6.10
2018-06-30T15:27:31.567Z,4.90
2018-06-30T15:29:59.684Z,12.03
2018-06-30T15:32:27.779Z,5.80
2018-06-30T15:34:55.943Z,6.30
2018-06-30T15:37:24.046Z,5.40
2018-06-30T15:39:52.151Z,6.47
2018-06-30T15:42:20.259Z,6.07
2018-06-30T15:44:48.443Z,5.90
2018-06-30T15:47:16.546Z,6.20
2018-06-30T15:49:44.644Z,6.37
2018-06-30T15:52:12.759Z,6.57
2018-06-30T15:54:40.935Z,13.23
2018-06-30T15:57:09.127Z,14.03
2018-06-30T15:59:37.227Z,8.77
2018-06-30T16:02:05.359Z,7.00
2018-06-30T16:04:33.711Z,6.70
2018-06-30T16:07:01.929Z,6.20
2018-06-30T16:09:30.023Z,6.53
2018-06-30T16:11:58.125Z,9.03
2018-06-30T16:14:26.321Z,5.93
2018-06-30T16:16:54.419Z,6.40
2018-06-30T16:19:22.514Z,6.27
2018-06-30T16:21:50.708Z,7.20
2018-06-30T16:24:18.932Z,6.67
2018-06-30T16:26:47.802Z,7.40
2018-06-30T16:29:19.510Z,8.33
2018-06-30T16:31:47.623Z,6.70
2018-06-30T16:34:15.698Z,8.40
2018-06-30T16:36:43.795Z,7.87
2018-06-30T16:39:12.406Z,5.73
2018-06-30T16:41:40.866Z,6.27
2018-06-30T16:44:08.957Z,6.53
2018-06-30T16:46:37.626Z,5.90
2018-06-30T16:49:06.260Z,5.83
2018-06-30T16:51:34.310Z,6.27
2018-06-30T16:54:02.407Z,7.67
2018-06-30T16:56:30.518Z,5.83
2018-06-30T16:58:58.677Z,6.10
2018-06-30T17:01:26.811Z,5.37
2018-06-30T17:03:54.915Z,6.43
2018-06-30T17:06:23.016Z,5.93
2018-06-30T17:08:51.112Z,5.30
2018-06-30T17:11:18.997Z,6.07
2018-06-30T17:13:47.234Z,5.83
2018-06-30T17:16:15.386Z,5.23
2018-06-30T17:18:43.667Z,6.93
2018-06-30T17:21:11.775Z,6.03
2018-06-30T17:23:39.906Z,6.20
2018-06-30T17:26:08.089Z,6.17
2018-06-30T17:28:36.138Z,5.97
2018-06-30T17:31:04.230Z,7.80
2018-06-30T17:33:32.627Z,7.10
2018-06-30T17:36:00.730Z,5.97
2018-06-30T17:38:28.839Z,6.57
2018-06-30T17:40:56.934Z,9.53
2018-06-30T17:43:25.058Z,7.13
2018-06-30T17:45:53.155Z,6.20
2018-06-30T17:48:21.470Z,6.70
2018-06-30T17:50:49.743Z,7.90
2018-06-30T17:53:18.007Z,7.67
2018-06-30T17:55:46.090Z,5.57
2018-06-30T17:58:14.203Z,6.00
2018-06-30T18:00:42.410Z,7.40
2018-06-30T18:03:10.571Z,7.40
2018-06-30T18:05:38.663Z,7.10
2018-06-30T18:08:06.779Z,9.47
2018-06-30T18:10:34.879Z,7.23
2018-06-30T18:13:02.978Z,6.80
2018-06-30T18:15:31.090Z,6.40
2018-06-30T18:17:59.190Z,5.40
2018-06-30T18:20:27.418Z,12.77
2018-06-30T18:22:55.559Z,5.83
2018-06-30T18:25:23.669Z,5.70
2018-06-30T18:27:51.787Z,5.80
2018-06-30T18:30:19.913Z,6.27
2018-06-30T18:32:48.049Z,8.47
2018-06-30T18:35:16.336Z,6.37
2018-06-30T18:37:44.466Z,6.13
2018-06-30T18:40:12.638Z,7.13
2018-06-30T18:42:40.678Z,6.30
2018-06-30T18:45:08.838Z,6.00
2018-06-30T18:47:36.935Z,7.33
2018-06-30T18:50:05.336Z,7.70
2018-06-30T18:52:33.461Z,5.90
2018-06-30T18:55:01.643Z,5.87
2018-06-30T18:57:29.825Z,6.20
2018-06-30T18:59:57.907Z,7.27
2018-06-30T19:02:26.178Z,12.73
2018-06-30T19:04:54.270Z,5.53
2018-06-30T19:07:22.627Z,5.70
2018-06-30T19:09:50.727Z,5.27
2018-06-30T19:12:18.858Z,5.07
2018-06-30T19:14:46.974Z,5.57
2018-06-30T19:17:15.087Z,5.37
2018-06-30T19:19:43.182Z,5.40
2018-06-30T19:22:11.347Z,5.93
2018-06-30T19:24:39.762Z,5.17
2018-06-30T19:27:07.902Z,6.77
2018-06-30T19:29:36.547Z,6.43
2018-06-30T19:32:04.779Z,5.10
2018-06-30T19:34:32.931Z,6.00
2018-06-30T19:37:01.090Z,5.07
2018-06-30T19:39:29.190Z,5.60
2018-06-30T19:41:57.347Z,6.10
2018-06-30T19:44:25.526Z,7.90
2018-06-30T19:46:53.694Z,5.33
2018-06-30T19:49:21.887Z,5.03
2018-06-30T19:51:49.993Z,4.40
2018-06-30T19:54:18.145Z,4.30
2018-06-30T19:56:47.604Z,4.70
2018-06-30T19:59:17.627Z,4.10
2018-06-30T20:01:46.822Z,4.13
2018-06-30T20:04:15.019Z,6.13
2018-06-30T20:06:43.174Z,3.63
2018-06-30T20:09:11.341Z,5.40
2018-06-30T20:11:39.530Z,4.10
2018-06-30T20:14:07.646Z,5.00
2018-06-30T20:16:35.743Z,3.27
2018-06-30T20:19:03.843Z,3.33
2018-06-30T20:21:31.936Z,3.40
2018-06-30T20:24:00.044Z,2.80
2018-06-30T20:26:28.130Z,5.80
2018-06-30T20:28:56.239Z,4.83
2018-06-30T20:31:24.410Z,4.77
2018-06-30T20:33:52.747Z,2.47
2018-06-30T20:36:20.822Z,2.80
2018-06-30T20:38:48.936Z,3.40
2018-06-30T20:41:17.046Z,2.97
2018-06-30T20:43:45.171Z,10.83
2018-06-30T20:46:13.254Z,5.63
2018-06-30T20:48:41.390Z,3.13
2018-06-30T20:51:09.466Z,2.47
2018-06-30T20:53:37.562Z,2.20
2018-06-30T20:56:05.658Z,3.90
2018-06-30T20:58:33.759Z,5.13
2018-06-30T21:01:01.869Z,1.83
2018-06-30T21:03:30.059Z,1.90
2018-06-30T21:05:58.155Z,2.00
2018-06-30T21:08:26.263Z,1.53
2018-06-30T21:10:54.350Z,2.50
2018-06-30T21:13:22.554Z,2.03
2018-06-30T21:15:50.654Z,1.60
2018-06-30T21:18:19.719Z,2.63
2018-06-30T21:20:47.873Z,1.30
2018-06-30T21:23:15.934Z,2.10
2018-06-30T21:25:44.039Z,1.40
2018-06-30T21:28:12.403Z,1.37
2018-06-30T21:30:40.591Z,1.50
2018-06-30T21:33:08.595Z,2.50
2018-06-30T21:35:36.715Z,1.30
2018-06-30T21:38:05.030Z,1.63
2018-06-30T21:40:33.126Z,2.20
2018-06-30T21:43:01.235Z,2.17
2018-06-30T21:45:29.437Z,1.13
2018-06-30T21:47:57.570Z,4.00
2018-06-30T21:50:25.779Z,4.90
2018-06-30T21:52:53.886Z,1.63
2018-06-30T21:55:21.978Z,1.27
2018-06-30T21:57:50.130Z,1.63
2018-06-30T22:00:27.199Z,1.30
2018-06-30T22:02:55.314Z,2.20
2018-06-30T22:05:23.412Z,1.43
2018-06-30T22:07:51.506Z,2.30
2018-06-30T22:10:19.599Z,2.00
2018-06-30T22:12:47.695Z,0.93
2018-06-30T22:15:15.795Z,2.27
2018-06-30T22:17:43.978Z,1.23
2018-06-30T22:20:12.083Z,0.80
2018-06-30T22:22:40.174Z,1.00
2018-06-30T22:25:08.795Z,1.90
2018-06-30T22:27:36.890Z,2.57
2018-06-30T22:30:04.987Z,1.20
2018-06-30T22:32:33.074Z,1.03
2018-06-30T22:35:01.199Z,1.00
2018-06-30T22:37:29.291Z,2.20
2018-06-30T22:40:09.027Z,2.10
2018-06-30T22:42:37.110Z,2.77
2018-06-30T22:45:05.231Z,1.20
2018-06-30T22:47:33.323Z,2.00
2018-06-30T22:50:01.427Z,1.00
2018-06-30T22:52:29.518Z,1.20
2018-06-30T22:54:57.622Z,2.53
2018-06-30T22:57:25.839Z,1.30
2018-06-30T22:59:53.990Z,1.77
2018-06-30T23:02:22.183Z,3.13
2018-06-30T23:04:50.306Z,1.03
2018-06-30T23:07:18.395Z,1.67
2018-06-30T23:09:46.490Z,1.60
2018-06-30T23:12:14.579Z,1.00
2018-06-30T23:14:42.788Z,2.57
2018-06-30T23:17:10.656Z,1.10
2018-06-30T23:19:38.755Z,1.23
2018-06-30T23:22:06.855Z,0.90
2018-06-30T23:24:34.983Z,0.90
2018-06-30T23:27:03.071Z,1.10
2018-06-30T23:29:31.167Z,1.40
2018-06-30T23:31:59.331Z,3.73
2018-06-30T23:34:27.443Z,1.23
2018-06-30T23:36:55.522Z,2.90
2018-06-30T23:39:23.623Z,2.20
2018-06-30T23:41:51.823Z,1.30
2018-06-30T23:44:19.918Z,1.30
2018-06-30T23:46:48.003Z,1.30
2018-06-30T23:49:16.094Z,1.77
2018-06-30T23:51:44.204Z,1.17
2018-06-30T23:54:12.288Z,3.70
2018-06-30T23:56:40.383Z,0.93
2018-06-30T23:59:08.470Z,0.90
